createdAt,value
2018-08-03T00:02:22.798Z,101620.17
2018-08-03T00:04:48.781Z,101621.85
2018-08-03T00:07:14.750Z,101614.53
2018-08-03T00:09:40.747Z,101612.50
2018-08-03T00:12:06.708Z,101614.84
2018-08-03T00:14:32.692Z,101618.01
2018-08-03T00:16:58.659Z,101610.16
2018-08-03T00:19:24.645Z,101613.80
2018-08-03T00:21:50.608Z,101618.86
2018-08-03T00:24:16.627Z,101618.98
2018-08-03T00:26:42.612Z,101612.00
2018-08-03T00:29:08.601Z,101615.34
2018-08-03T00:31:34.643Z,101612.36
2018-08-03T00:34:00.595Z,101613.19
2018-08-03T00:36:26.591Z,101610.52
2018-08-03T00:38:52.613Z,101611.02
2018-08-03T00:41:18.603Z,101611.84
2018-08-03T00:43:44.578Z,101610.16
2018-08-03T00:46:10.548Z,101609.69
2018-08-03T00:48:36.517Z,101603.34
2018-08-03T00:51:02.492Z,101618.01
2018-08-03T00:53:28.518Z,101612.83
2018-08-03T00:55:54.488Z,101607.48
2018-08-03T00:58:20.464Z,101608.47
2018-08-03T01:00:46.438Z,101608.19
2018-08-03T01:03:12.402Z,101604.66
2018-08-03T01:05:38.407Z,101609.80
2018-08-03T01:08:04.391Z,101606.86
2018-08-03T01:10:30.427Z,101610.00
2018-08-03T01:12:56.441Z,101606.67
2018-08-03T01:15:22.439Z,101600.00
2018-08-03T01:17:48.417Z,101611.17
2018-08-03T01:20:14.404Z,101608.19
2018-08-03T01:22:40.942Z,101608.17
2018-08-03T01:25:06.923Z,101609.17
2018-08-03T01:27:32.898Z,101610.16
2018-08-03T01:29:59.000Z,101608.36
2018-08-03T01:32:24.985Z,101606.00
2018-08-03T01:34:50.965Z,101604.67
2018-08-03T01:37:16.973Z,101604.01
2018-08-03T01:39:42.958Z,101607.19
2018-08-03T01:42:08.957Z,101609.80
2018-08-03T01:44:34.932Z,101603.64
2018-08-03T01:47:00.933Z,101605.52
2018-08-03T01:49:26.894Z,101604.83
2018-08-03T01:51:52.902Z,101604.47
2018-08-03T01:54:18.883Z,101606.35
2018-08-03T01:56:44.853Z,101606.16
2018-08-03T01:59:10.864Z,101603.48
2018-08-03T02:01:36.803Z,101605.52
2018-08-03T02:04:02.788Z,101608.97
2018-08-03T02:06:28.757Z,101610.31
2018-08-03T02:08:54.823Z,101604.81
2018-08-03T02:11:20.799Z,101610.81
2018-08-03T02:13:46.795Z,101606.66
2018-08-03T02:16:12.782Z,101605.64
2018-08-03T02:18:38.746Z,101597.98
2018-08-03T02:21:04.711Z,101603.64
2018-08-03T02:23:30.680Z,101603.33
2018-08-03T02:25:56.649Z,101603.83
2018-08-03T02:28:22.620Z,101600.00
2018-08-03T02:30:48.596Z,101595.84
2018-08-03T02:33:14.575Z,101593.99
2018-08-03T02:35:40.734Z,101596.97
2018-08-03T02:38:06.705Z,101600.80
2018-08-03T02:40:32.806Z,101600.97
2018-08-03T02:50:34.033Z,101606.99
2018-08-03T02:53:00.050Z,101603.47
2018-08-03T02:55:26.024Z,101614.48
2018-08-03T02:57:52.000Z,101618.47
2018-08-03T03:00:18.017Z,101619.14
2018-08-03T03:02:44.001Z,101625.65
2018-08-03T03:05:09.991Z,101622.48
2018-08-03T03:07:35.980Z,101620.79
2018-08-03T03:10:02.106Z,101625.14
2018-08-03T03:12:28.072Z,101619.29
2018-08-03T03:14:54.031Z,101618.47
2018-08-03T03:17:20.090Z,101626.81
2018-08-03T03:19:46.089Z,101625.65
2018-08-03T03:22:12.032Z,101624.47
2018-08-03T03:24:38.012Z,101628.62
2018-08-03T03:27:03.988Z,101624.45
2018-08-03T03:29:29.966Z,101619.13
2018-08-03T03:31:55.953Z,101616.97
2018-08-03T03:34:21.956Z,101620.47
2018-08-03T03:36:47.923Z,101626.13
2018-08-03T03:39:13.902Z,101623.81
2018-08-03T03:41:39.883Z,101624.79
2018-08-03T03:44:05.880Z,101626.46
2018-08-03T03:46:31.850Z,101626.80
2018-08-03T03:48:57.922Z,101624.30
2018-08-03T03:51:23.893Z,101623.81
2018-08-03T03:53:49.869Z,101624.95
2018-08-03T03:56:15.990Z,101622.80
2018-08-03T03:58:42.121Z,101628.45
2018-08-03T04:01:08.111Z,101625.63
2018-08-03T04:03:34.099Z,101628.13
2018-08-03T04:06:00.106Z,101623.14
2018-08-03T04:08:26.081Z,101628.47
2018-08-03T04:10:52.151Z,101628.30
2018-08-03T04:13:18.482Z,101625.30
2018-08-03T04:15:44.487Z,101622.47
2018-08-03T04:18:10.459Z,101619.14
2018-08-03T04:20:36.439Z,101617.96
2018-08-03T04:23:02.437Z,101620.30
2018-08-03T04:25:28.537Z,101626.13
2018-08-03T04:27:54.476Z,101633.14
2018-08-03T04:30:20.480Z,101628.62
2018-08-03T04:32:46.448Z,101630.95
2018-08-03T04:35:12.419Z,101627.14
2018-08-03T04:37:38.399Z,101624.64
2018-08-03T04:40:04.389Z,101625.14
2018-08-03T04:42:30.417Z,101623.46
2018-08-03T04:44:56.385Z,101629.47
2018-08-03T04:47:22.371Z,101632.11
2018-08-03T04:49:48.406Z,101632.12
2018-08-03T04:52:14.383Z,101632.28
2018-08-03T04:54:40.424Z,101630.97
2018-08-03T04:57:06.375Z,101637.45
2018-08-03T04:59:32.356Z,101635.12
2018-08-03T05:01:58.344Z,101637.14
2018-08-03T05:04:24.348Z,101637.46
2018-08-03T05:06:50.340Z,101638.96
2018-08-03T05:09:16.367Z,101634.95
2018-08-03T05:11:42.340Z,101636.13
2018-08-03T05:14:08.316Z,101635.80
2018-08-03T05:16:34.335Z,101639.12
2018-08-03T05:19:00.803Z,101631.61
2018-08-03T05:21:26.818Z,101636.13
2018-08-03T05:23:52.810Z,101634.47
2018-08-03T05:26:18.803Z,101636.28
2018-08-03T05:28:44.767Z,101642.47
2018-08-03T05:31:10.781Z,101643.28
2018-08-03T05:33:36.869Z,101639.78
2018-08-03T05:36:02.959Z,101643.95
2018-08-03T05:38:28.929Z,101639.80
2018-08-03T05:40:54.899Z,101638.62
2018-08-03T05:43:20.889Z,101641.29
2018-08-03T05:45:46.871Z,101634.12
2018-08-03T05:48:13.465Z,101639.62
2018-08-03T05:50:39.454Z,101640.13
2018-08-03T05:53:05.456Z,101642.13
2018-08-03T05:55:31.568Z,101648.78
2018-08-03T05:57:58.174Z,101647.30
2018-08-03T06:00:25.606Z,101650.45
2018-08-03T06:02:52.789Z,101650.95
2018-08-03T06:05:20.713Z,101648.44
2018-08-03T06:07:46.859Z,101659.59
2018-08-03T06:10:13.937Z,101652.93
2018-08-03T06:15:11.412Z,101651.61
2018-08-03T06:17:37.596Z,101652.77
2018-08-03T06:22:34.353Z,101655.62
2018-08-03T06:25:00.378Z,101657.47
2018-08-03T06:27:26.375Z,101658.13
2018-08-03T06:29:52.384Z,101656.95
2018-08-03T06:32:18.422Z,101657.45
2018-08-03T06:34:44.979Z,101649.64
2018-08-03T06:37:13.490Z,101649.13
2018-08-03T06:39:42.596Z,101646.28
2018-08-03T06:42:11.705Z,101647.13
2018-08-03T06:44:42.938Z,101650.61
2018-08-03T06:49:44.128Z,101654.95
2018-08-03T06:54:42.444Z,101651.78
2018-08-03T06:57:09.246Z,101653.79
2018-08-03T06:59:35.429Z,101663.79
2018-08-03T07:02:01.598Z,101659.28
2018-08-03T07:04:27.780Z,101660.30
2018-08-03T07:06:54.977Z,101661.95
2018-08-03T07:09:21.283Z,101658.46
2018-08-03T07:11:47.464Z,101653.14
2018-08-03T07:16:49.755Z,101651.67
2018-08-03T07:19:15.883Z,101646.16
2018-08-03T07:21:45.049Z,101648.83
2018-08-03T07:24:11.127Z,101646.51
2018-08-03T07:26:37.192Z,101646.35
2018-08-03T07:29:03.332Z,101647.13
2018-08-03T07:36:39.437Z,101640.84
2018-08-03T07:39:05.462Z,101643.83
2018-08-03T07:41:31.547Z,101649.83
2018-08-03T07:44:01.213Z,101652.34
2018-08-03T07:46:27.338Z,101648.84
2018-08-03T07:48:53.504Z,101655.16
2018-08-03T07:53:51.762Z,101652.34
2018-08-03T07:56:17.763Z,101656.00
2018-08-03T07:58:43.751Z,101645.17
2018-08-03T08:01:09.714Z,101649.49
2018-08-03T08:03:35.683Z,101648.01
2018-08-03T08:06:01.657Z,101647.48
2018-08-03T08:08:27.717Z,101644.52
2018-08-03T08:10:54.957Z,101644.16
2018-08-03T08:13:21.144Z,101645.01
2018-08-03T08:15:47.429Z,101642.51
2018-08-03T08:18:13.650Z,101634.67
2018-08-03T08:20:39.879Z,101631.02
2018-08-03T08:23:06.108Z,101631.84
2018-08-03T08:25:32.308Z,101640.02
2018-08-03T08:27:58.474Z,101627.83
2018-08-03T08:30:24.691Z,101623.84
2018-08-03T08:32:50.785Z,101624.66
2018-08-03T08:35:16.823Z,101629.69
2018-08-03T08:37:42.948Z,101623.50
2018-08-03T08:40:09.004Z,101617.98
2018-08-03T08:42:35.108Z,101619.34
2018-08-03T08:45:01.179Z,101618.84
2018-08-03T08:47:27.249Z,101619.66
2018-08-03T08:49:53.340Z,101615.83
2018-08-03T08:52:19.425Z,101609.98
2018-08-03T08:54:45.453Z,101615.17
2018-08-03T08:57:11.363Z,101611.32
2018-08-03T08:59:37.352Z,101603.48
2018-08-03T09:02:03.296Z,101599.48
2018-08-03T09:04:29.321Z,101599.32
2018-08-03T09:06:55.354Z,101594.50
2018-08-03T09:09:21.299Z,101598.49
2018-08-03T09:11:47.272Z,101601.00
2018-08-03T09:14:14.513Z,101596.50
2018-08-03T09:16:40.572Z,101596.18
2018-08-03T09:19:06.642Z,101594.15
2018-08-03T09:21:32.797Z,101590.15
2018-08-03T09:23:58.957Z,101593.33
2018-08-03T09:26:25.009Z,101593.16
2018-08-03T09:28:52.974Z,101586.15
2018-08-03T09:31:22.263Z,101592.18
2018-08-03T09:33:48.491Z,101582.17
2018-08-03T09:36:14.715Z,101588.29
2018-08-03T09:38:40.796Z,101582.98
2018-08-03T09:41:07.025Z,101584.50
2018-08-03T09:46:10.202Z,101573.65
2018-08-03T09:48:36.471Z,101575.81
2018-08-03T09:51:02.606Z,101568.47
2018-08-03T09:53:28.651Z,101564.15
2018-08-03T09:55:54.727Z,101563.83
2018-08-03T10:00:53.400Z,101557.16
2018-08-03T10:03:20.888Z,101552.17
2018-08-03T10:05:47.996Z,101552.47
2018-08-03T10:08:15.950Z,101552.63
2018-08-03T10:10:42.132Z,101551.80
2018-08-03T10:13:08.219Z,101538.63
2018-08-03T10:15:34.342Z,101542.14
2018-08-03T10:18:00.422Z,101541.80
2018-08-03T10:20:26.614Z,101529.64
2018-08-03T10:22:52.844Z,101536.46
2018-08-03T10:25:18.910Z,101533.28
2018-08-03T10:27:49.865Z,101533.28
2018-08-03T10:30:16.029Z,101533.48
2018-08-03T10:32:42.065Z,101536.62
2018-08-03T10:35:08.095Z,101532.62
2018-08-03T10:37:34.061Z,101524.30
2018-08-03T10:40:00.025Z,101523.95
2018-08-03T10:42:26.027Z,101519.59
2018-08-03T10:44:52.058Z,101516.41
2018-08-03T10:47:18.075Z,101507.78
2018-08-03T10:49:44.030Z,101501.28
2018-08-03T10:52:10.036Z,101506.14
2018-08-03T10:54:35.985Z,101497.78
2018-08-03T10:57:01.983Z,101500.05
2018-08-03T10:59:28.034Z,101502.92
2018-08-03T11:01:54.039Z,101501.47
2018-08-03T11:04:21.498Z,101501.44
2018-08-03T11:06:47.503Z,101505.59
2018-08-03T11:09:13.507Z,101502.41
2018-08-03T11:11:39.476Z,101498.77
2018-08-03T11:14:05.517Z,101492.45
2018-08-03T11:16:31.573Z,101488.76
2018-08-03T11:18:57.532Z,101493.11
2018-08-03T11:21:23.620Z,101484.56
2018-08-03T11:23:49.593Z,101485.27
2018-08-03T11:26:15.558Z,101488.96
2018-08-03T11:28:41.525Z,101484.09
2018-08-03T11:31:07.490Z,101485.11
2018-08-03T11:33:33.470Z,101487.94
2018-08-03T11:35:59.451Z,101481.47
2018-08-03T11:38:25.465Z,101481.78
2018-08-03T11:40:51.494Z,101480.80
2018-08-03T11:43:17.430Z,101473.78
2018-08-03T11:45:43.698Z,101470.76
2018-08-03T11:48:10.716Z,101466.09
2018-08-03T11:50:37.381Z,101463.42
2018-08-03T11:53:03.463Z,101456.91
2018-08-03T11:55:29.506Z,101459.22
2018-08-03T11:57:55.477Z,101455.05
2018-08-03T12:00:23.550Z,101449.09
2018-08-03T12:02:49.574Z,101445.73
2018-08-03T12:05:15.605Z,101442.95
2018-08-03T12:07:41.592Z,101432.42
2018-08-03T12:10:07.573Z,101433.41
2018-08-03T12:12:33.696Z,101430.73
2018-08-03T12:14:59.710Z,101434.02
2018-08-03T12:17:25.710Z,101429.70
2018-08-03T12:19:52.771Z,101429.36
2018-08-03T12:22:18.731Z,101419.56
2018-08-03T12:24:44.697Z,101418.73
2018-08-03T12:27:10.717Z,101418.88
2018-08-03T12:29:36.694Z,101417.03
2018-08-03T12:32:02.672Z,101417.55
2018-08-03T12:34:28.660Z,101414.68
2018-08-03T12:36:56.319Z,101413.19
2018-08-03T12:39:22.259Z,101407.20
2018-08-03T12:41:48.969Z,101408.37
2018-08-03T12:44:14.939Z,101401.39
2018-08-03T12:46:41.018Z,101396.22
2018-08-03T12:49:07.335Z,101401.41
2018-08-03T12:51:33.357Z,101395.09
2018-08-03T12:53:59.291Z,101396.73
2018-08-03T12:56:25.265Z,101386.41
2018-08-03T12:58:51.241Z,101387.04
2018-08-03T13:01:17.253Z,101386.41
2018-08-03T13:03:43.194Z,101382.72
2018-08-03T13:06:09.225Z,101378.26
2018-08-03T13:08:35.350Z,101380.56
2018-08-03T13:11:01.329Z,101377.03
2018-08-03T13:13:27.296Z,101372.56
2018-08-03T13:15:53.266Z,101374.05
2018-08-03T13:18:19.227Z,101371.08
2018-08-03T13:20:45.213Z,101365.55
2018-08-03T13:23:12.072Z,101367.08
2018-08-03T13:25:38.044Z,101363.54
2018-08-03T13:28:03.999Z,101361.02
2018-08-03T13:30:29.970Z,101360.57
2018-08-03T13:32:55.918Z,101359.90
2018-08-03T13:35:22.660Z,101345.08
2018-08-03T13:37:51.687Z,101349.38
2018-08-03T13:40:17.640Z,101348.55
2018-08-03T13:42:43.620Z,101349.06
2018-08-03T13:45:09.607Z,101347.90
2018-08-03T13:47:35.662Z,101340.41
2018-08-03T13:50:01.693Z,101336.70
2018-08-03T13:52:30.302Z,101332.40
2018-08-03T13:57:31.234Z,101323.02
2018-08-03T14:00:00.709Z,101319.88
2018-08-03T14:02:28.461Z,101313.35
2018-08-03T14:04:54.609Z,101313.83
2018-08-03T14:07:20.583Z,101311.72
2018-08-03T14:09:46.567Z,101311.02
2018-08-03T14:12:12.603Z,101304.20
2018-08-03T14:14:38.554Z,101298.23
2018-08-03T14:17:04.515Z,101300.34
2018-08-03T14:19:30.896Z,101300.69
2018-08-03T14:21:56.893Z,101294.70
2018-08-03T14:24:22.879Z,101299.06
2018-08-03T14:26:48.846Z,101298.38
2018-08-03T14:29:14.814Z,101292.20
2018-08-03T14:31:40.892Z,101294.84
2018-08-03T14:34:06.761Z,101289.00
2018-08-03T14:36:32.723Z,101284.53
2018-08-03T14:38:58.691Z,101283.00
2018-08-03T14:41:24.666Z,101282.02
2018-08-03T14:43:50.632Z,101280.02
2018-08-03T14:46:16.651Z,101282.82
2018-08-03T14:48:42.689Z,101282.16
2018-08-03T14:51:08.676Z,101278.47
2018-08-03T14:53:34.653Z,101281.52
2018-08-03T14:56:00.639Z,101279.20
2018-08-03T14:58:26.616Z,101278.19
2018-08-03T15:00:52.612Z,101271.36
2018-08-03T15:03:18.613Z,101268.53
2018-08-03T15:05:44.575Z,101266.03
2018-08-03T15:08:10.540Z,101258.01
2018-08-03T15:10:36.504Z,101258.38
2018-08-03T15:13:02.487Z,101255.70
2018-08-03T15:15:28.459Z,101254.32
2018-08-03T15:17:54.446Z,101254.52
2018-08-03T15:20:20.402Z,101256.38
2018-08-03T15:22:46.386Z,101254.03
2018-08-03T15:25:12.372Z,101250.53
2018-08-03T15:27:38.476Z,101247.05
2018-08-03T15:30:04.460Z,101244.47
2018-08-03T15:32:39.164Z,101251.56
2018-08-03T15:35:05.234Z,101241.34
2018-08-03T15:37:31.235Z,101236.03
2018-08-03T15:39:57.207Z,101256.38
2018-08-03T15:42:23.143Z,101238.52
2018-08-03T15:44:49.140Z,101243.19
2018-08-03T15:47:15.118Z,101237.86
2018-08-03T15:49:41.165Z,101240.37
2018-08-03T15:52:07.217Z,101234.98
2018-08-03T15:54:33.188Z,101231.48
2018-08-03T15:56:59.263Z,101233.78
2018-08-03T15:59:25.265Z,101236.33
2018-08-03T16:01:51.228Z,101235.50
2018-08-03T16:04:17.216Z,101229.03
2018-08-03T16:06:43.330Z,101228.95
2018-08-03T16:09:09.339Z,101228.05
2018-08-03T16:11:35.303Z,101222.88
2018-08-03T16:14:01.296Z,101226.13
2018-08-03T16:16:27.257Z,101219.64
2018-08-03T16:18:53.266Z,101221.34
2018-08-03T16:21:19.238Z,101215.49
2018-08-03T16:23:45.314Z,101218.36
2018-08-03T16:26:11.284Z,101211.18
2018-08-03T16:28:37.242Z,101215.64
2018-08-03T16:31:03.224Z,101210.36
2018-08-03T16:33:29.214Z,101209.31
2018-08-03T16:35:55.195Z,101208.00
2018-08-03T16:38:21.282Z,101210.80
2018-08-03T16:40:47.323Z,101205.26
2018-08-03T16:43:13.317Z,101200.27
2018-08-03T16:45:39.300Z,101197.25
2018-08-03T16:48:05.273Z,101198.12
2018-08-03T16:50:31.300Z,101198.79
2018-08-03T16:52:57.298Z,101198.81
2018-08-03T16:55:23.273Z,101196.35
2018-08-03T16:57:49.232Z,101203.70
2018-08-03T17:00:15.231Z,101195.72
2018-08-03T17:02:41.220Z,101198.80
2018-08-03T17:05:07.217Z,101193.45
2018-08-03T17:07:33.200Z,101198.37
2018-08-03T17:09:59.165Z,101198.05
2018-08-03T17:12:25.286Z,101200.58
2018-08-03T17:14:51.252Z,101197.06
2018-08-03T17:22:20.110Z,101194.42
2018-08-03T17:24:46.068Z,101191.06
2018-08-03T17:27:12.058Z,101197.55
2018-08-03T17:29:39.128Z,101202.42
2018-08-03T17:32:05.139Z,101196.77
2018-08-03T17:34:31.080Z,101190.02
2018-08-03T17:36:57.056Z,101194.56
2018-08-03T17:39:23.015Z,101190.02
2018-08-03T17:41:48.989Z,101186.10
2018-08-03T17:44:14.969Z,101194.42
2018-08-03T17:46:40.932Z,101198.42
2018-08-03T17:49:06.894Z,101195.23
2018-08-03T17:51:32.870Z,101195.98
2018-08-03T17:53:58.824Z,101195.61
2018-08-03T17:56:24.840Z,101202.45
2018-08-03T17:58:50.811Z,101196.77
2018-08-03T18:01:16.823Z,101194.95
2018-08-03T18:03:42.769Z,101202.28
2018-08-03T18:06:08.775Z,101204.86
2018-08-03T18:08:34.744Z,101205.77
2018-08-03T18:11:00.703Z,101202.70
2018-08-03T18:13:26.671Z,101202.39
2018-08-03T18:15:52.702Z,101201.91
2018-08-03T18:18:18.643Z,101204.55
2018-08-03T18:20:44.610Z,101208.92
2018-08-03T18:23:10.569Z,101207.22
2018-08-03T18:25:36.539Z,101205.55
2018-08-03T18:28:02.613Z,101206.25
2018-08-03T18:30:28.558Z,101204.27
2018-08-03T18:32:54.517Z,101215.02
2018-08-03T18:35:20.495Z,101214.59
2018-08-03T18:37:46.480Z,101209.91
2018-08-03T18:40:12.436Z,101212.92
2018-08-03T18:42:38.421Z,101207.39
2018-08-03T18:45:04.416Z,101216.05
2018-08-03T18:47:30.372Z,101211.91
2018-08-03T18:49:56.409Z,101212.56
2018-08-03T18:52:22.477Z,101215.53
2018-08-03T18:54:48.344Z,101216.05
2018-08-03T18:57:16.288Z,101218.88
2018-08-03T18:59:42.292Z,101214.42
2018-08-03T19:02:09.251Z,101218.73
2018-08-03T19:04:37.211Z,101219.86
2018-08-03T19:07:03.250Z,101218.41
2018-08-03T19:09:32.824Z,101218.88
2018-08-03T19:11:58.813Z,101221.61
2018-08-03T19:14:24.801Z,101219.39
2018-08-03T19:16:50.795Z,101221.22
2018-08-03T19:19:22.123Z,101225.24
2018-08-03T19:21:48.166Z,101218.20
2018-08-03T19:24:14.096Z,101223.88
2018-08-03T19:26:40.078Z,101227.45
2018-08-03T19:29:06.074Z,101228.22
2018-08-03T19:31:32.110Z,101233.08
2018-08-03T19:33:58.092Z,101241.23
2018-08-03T19:36:24.064Z,101247.55
2018-08-03T19:38:50.021Z,101247.89
2018-08-03T19:41:15.984Z,101253.56
2018-08-03T19:43:41.978Z,101258.40
2018-08-03T19:46:07.955Z,101256.44
2018-08-03T19:48:33.936Z,101260.44
2018-08-03T19:50:59.913Z,101260.44
2018-08-03T19:53:25.897Z,101264.23
2018-08-03T19:55:51.865Z,101259.47
2018-08-03T19:58:17.852Z,101264.75
2018-08-03T20:00:43.840Z,101270.28
2018-08-03T20:03:09.806Z,101269.41
2018-08-03T20:05:39.775Z,101274.91
2018-08-03T20:08:05.749Z,101274.59
2018-08-03T20:10:31.739Z,101274.44
2018-08-03T20:12:57.861Z,101279.06
2018-08-03T20:15:24.200Z,101269.94
2018-08-03T20:17:50.271Z,101265.91
2018-08-03T20:20:16.259Z,101265.27
2018-08-03T20:22:42.275Z,101262.23
2018-08-03T20:25:08.288Z,101262.42
2018-08-03T20:27:34.274Z,101262.28
2018-08-03T20:30:00.241Z,101266.59
2018-08-03T20:32:26.225Z,101262.13
2018-08-03T20:34:52.201Z,101263.61
2018-08-03T20:37:18.199Z,101270.81
2018-08-03T20:39:46.178Z,101273.28
2018-08-03T20:42:12.190Z,101274.77
2018-08-03T20:44:38.177Z,101283.79
2018-08-03T20:47:04.146Z,101282.97
2018-08-03T20:49:30.138Z,101281.27
2018-08-03T20:51:56.093Z,101286.97
2018-08-03T20:54:22.238Z,101285.64
2018-08-03T20:56:48.217Z,101289.25
2018-08-03T20:59:14.200Z,101292.77
2018-08-03T21:01:40.212Z,101292.62
2018-08-03T21:04:06.159Z,101295.58
2018-08-03T21:06:32.152Z,101294.98
2018-08-03T21:09:03.373Z,101289.66
2018-08-03T21:11:29.367Z,101292.67
2018-08-03T21:13:55.355Z,101295.34
2018-08-03T21:16:21.377Z,101296.18
2018-08-03T21:18:47.372Z,101294.84
2018-08-03T21:21:13.378Z,101292.01
2018-08-03T21:23:39.427Z,101298.34
2018-08-03T21:26:05.439Z,101300.98
2018-08-03T21:28:31.421Z,101299.16
2018-08-03T21:30:57.464Z,101298.84
2018-08-03T21:33:23.460Z,101299.67
2018-08-03T21:35:49.487Z,101294.98
2018-08-03T21:38:15.493Z,101289.14
2018-08-03T21:40:41.450Z,101294.63
2018-08-03T21:43:07.419Z,101291.14
2018-08-03T21:45:33.405Z,101292.81
2018-08-03T21:47:59.428Z,101290.31
2018-08-03T21:50:25.402Z,101289.80
2018-08-03T21:52:57.344Z,101287.64
2018-08-03T21:55:28.648Z,101289.00
2018-08-03T21:57:58.270Z,101293.36
2018-08-03T22:00:24.235Z,101288.84
2018-08-03T22:02:50.190Z,101286.69
2018-08-03T22:05:16.143Z,101287.20
2018-08-03T22:07:42.117Z,101284.34
2018-08-03T22:10:08.089Z,101282.69
2018-08-03T22:12:34.049Z,101286.84
2018-08-03T22:15:00.032Z,101285.19
2018-08-03T22:17:26.030Z,101282.38
2018-08-03T22:19:52.003Z,101281.00
2018-08-03T22:22:17.952Z,101279.20
2018-08-03T22:24:43.920Z,101278.19
2018-08-03T22:27:09.957Z,101272.34
2018-08-03T22:29:35.935Z,101268.99
2018-08-03T22:34:33.855Z,101270.69
2018-08-03T22:36:59.804Z,101276.70
2018-08-03T22:39:25.779Z,101259.41
2018-08-03T22:41:53.447Z,101259.07
2018-08-03T22:44:19.433Z,101255.06
2018-08-03T22:46:45.430Z,101253.75
2018-08-03T22:49:11.392Z,101258.92
2018-08-03T22:51:37.363Z,101258.09
2018-08-03T22:54:03.337Z,101255.80
2018-08-03T22:56:29.335Z,101257.90
2018-08-03T22:58:55.353Z,101258.41
2018-08-03T23:01:21.314Z,101258.92
2018-08-03T23:03:47.640Z,101269.08
2018-08-03T23:06:13.716Z,101263.43
2018-08-03T23:08:39.695Z,101259.96
2018-08-03T23:11:05.723Z,101255.74
2018-08-03T23:13:31.790Z,101262.62
2018-08-03T23:15:57.837Z,101261.29
2018-08-03T23:18:23.827Z,101260.80
2018-08-03T23:20:49.812Z,101259.52
2018-08-03T23:23:15.839Z,101261.16
2018-08-03T23:25:41.846Z,101262.86
2018-08-03T23:28:07.884Z,101257.53
2018-08-03T23:30:33.911Z,101264.50
2018-08-03T23:32:59.967Z,101265.50
2018-08-03T23:35:25.946Z,101258.84
2018-08-03T23:37:52.015Z,101255.00
2018-08-03T23:40:18.016Z,101255.47
2018-08-03T23:42:44.020Z,101250.98
2018-08-03T23:45:10.014Z,101248.48
2018-08-03T23:47:36.112Z,101245.45
2018-08-03T23:50:02.115Z,101249.80
2018-08-03T23:52:28.159Z,101240.98
2018-08-03T23:54:54.129Z,101241.14
2018-08-03T23:57:20.109Z,101238.64
2018-08-03T23:59:46.074Z,101243.13
